sensor_id;sensor_type;location;lat;lon;timestamp;temperature;humidity
67862;DHT22;54665;51.462;6.698;2023-04-16T00:01:15;9.23;86.06
67862;DHT22;54665;51.462;6.698;2023-04-16T00:03:40;9.05;86.31
67862;DHT22;54665;51.462;6.698;2023-04-16T00:06:05;9.14;86.13
67862;DHT22;54665;51.462;6.698;2023-04-16T00:08:31;9.11;86.20
67862;DHT22;54665;51.462;6.698;2023-04-16T00:10:56;9.23;85.77
67862;DHT22;54665;51.462;6.698;2023-04-16T00:13:22;9.15;86.20
67862;DHT22;54665;51.462;6.698;2023-04-16T00:15:47;9.35;85.36
67862;DHT22;54665;51.462;6.698;2023-04-16T00:18:12;9.25;85.78
67862;DHT22;54665;51.462;6.698;2023-04-16T00:20:38;9.23;85.73
67862;DHT22;54665;51.462;6.698;2023-04-16T00:23:03;9.08;86.23
67862;DHT22;54665;51.462;6.698;2023-04-16T00:25:29;9.17;86.08
67862;DHT22;54665;51.462;6.698;2023-04-16T00:27:55;9.20;85.98
67862;DHT22;54665;51.462;6.698;2023-04-16T00:30:21;9.21;85.77
67862;DHT22;54665;51.462;6.698;2023-04-16T00:32:46;9.18;85.98
67862;DHT22;54665;51.462;6.698;2023-04-16T00:35:12;9.07;86.18
67862;DHT22;54665;51.462;6.698;2023-04-16T00:37:37;9.05;86.46
67862;DHT22;54665;51.462;6.698;2023-04-16T00:40:03;9.03;86.73
67862;DHT22;54665;51.462;6.698;2023-04-16T00:42:29;9.00;86.70
67862;DHT22;54665;51.462;6.698;2023-04-16T00:44:55;8.99;86.55
67862;DHT22;54665;51.462;6.698;2023-04-16T00:47:20;9.01;86.76
67862;DHT22;54665;51.462;6.698;2023-04-16T00:49:46;9.00;86.73
67862;DHT22;54665;51.462;6.698;2023-04-16T00:52:12;9.15;86.38
67862;DHT22;54665;51.462;6.698;2023-04-16T00:54:38;9.13;86.70
67862;DHT22;54665;51.462;6.698;2023-04-16T00:57:04;9.01;87.04
67862;DHT22;54665;51.462;6.698;2023-04-16T00:59:30;9.04;86.93
67862;DHT22;54665;51.462;6.698;2023-04-16T01:01:56;9.13;86.57
67862;DHT22;54665;51.462;6.698;2023-04-16T01:04:21;9.01;87.11
67862;DHT22;54665;51.462;6.698;2023-04-16T01:06:46;8.99;87.33
67862;DHT22;54665;51.462;6.698;2023-04-16T01:09:13;9.01;87.41
67862;DHT22;54665;51.462;6.698;2023-04-16T01:11:38;8.84;87.69
67862;DHT22;54665;51.462;6.698;2023-04-16T01:14:04;8.94;87.94
67862;DHT22;54665;51.462;6.698;2023-04-16T01:16:31;9.01;87.45
67862;DHT22;54665;51.462;6.698;2023-04-16T01:18:57;8.94;87.67
67862;DHT22;54665;51.462;6.698;2023-04-16T01:21:22;8.94;87.96
67862;DHT22;54665;51.462;6.698;2023-04-16T01:23:47;8.94;87.85
67862;DHT22;54665;51.462;6.698;2023-04-16T01:26:13;9.00;88.03
67862;DHT22;54665;51.462;6.698;2023-04-16T01:28:40;8.84;88.15
67862;DHT22;54665;51.462;6.698;2023-04-16T01:31:06;9.11;87.82
67862;DHT22;54665;51.462;6.698;2023-04-16T01:34:09;9.00;87.91
67862;DHT22;54665;51.462;6.698;2023-04-16T01:36:35;9.05;88.24
67862;DHT22;54665;51.462;6.698;2023-04-16T01:39:00;9.13;87.79
67862;DHT22;54665;51.462;6.698;2023-04-16T01:41:26;9.21;87.73
67862;DHT22;54665;51.462;6.698;2023-04-16T01:43:51;9.10;87.97
67862;DHT22;54665;51.462;6.698;2023-04-16T01:46:26;9.17;87.87
67862;DHT22;54665;51.462;6.698;2023-04-16T01:48:51;9.17;87.87
67862;DHT22;54665;51.462;6.698;2023-04-16T01:51:19;9.08;88.16
67862;DHT22;54665;51.462;6.698;2023-04-16T01:53:45;9.00;88.58
67862;DHT22;54665;51.462;6.698;2023-04-16T01:56:10;9.07;88.63
67862;DHT22;54665;51.462;6.698;2023-04-16T01:58:36;8.96;88.87
67862;DHT22;54665;51.462;6.698;2023-04-16T02:01:02;9.04;88.90
67862;DHT22;54665;51.462;6.698;2023-04-16T02:03:27;9.10;88.76
67862;DHT22;54665;51.462;6.698;2023-04-16T02:05:53;8.99;88.88
67862;DHT22;54665;51.462;6.698;2023-04-16T02:08:19;9.13;88.88
67862;DHT22;54665;51.462;6.698;2023-04-16T02:10:46;9.00;89.53
67862;DHT22;54665;51.462;6.698;2023-04-16T02:13:13;9.15;89.10
67862;DHT22;54665;51.462;6.698;2023-04-16T02:15:47;9.18;88.77
67862;DHT22;54665;51.462;6.698;2023-04-16T02:18:14;9.11;89.25
67862;DHT22;54665;51.462;6.698;2023-04-16T02:20:40;9.03;89.27
67862;DHT22;54665;51.462;6.698;2023-04-16T02:23:07;9.05;89.54
67862;DHT22;54665;51.462;6.698;2023-04-16T02:25:40;9.03;89.62
67862;DHT22;54665;51.462;6.698;2023-04-16T02:28:13;9.01;89.91
67862;DHT22;54665;51.462;6.698;2023-04-16T02:30:40;9.15;89.67
67862;DHT22;54665;51.462;6.698;2023-04-16T02:33:08;8.97;90.09
67862;DHT22;54665;51.462;6.698;2023-04-16T02:35:37;9.17;89.34
67862;DHT22;54665;51.462;6.698;2023-04-16T02:38:04;9.10;89.81
67862;DHT22;54665;51.462;6.698;2023-04-16T02:40:30;8.96;89.78
67862;DHT22;54665;51.462;6.698;2023-04-16T02:42:56;9.04;90.01
67862;DHT22;54665;51.462;6.698;2023-04-16T02:45:22;9.14;89.65
67862;DHT22;54665;51.462;6.698;2023-04-16T02:47:48;9.13;89.17
67862;DHT22;54665;51.462;6.698;2023-04-16T02:50:14;8.87;90.14
67862;DHT22;54665;51.462;6.698;2023-04-16T02:52:39;9.03;89.93
67862;DHT22;54665;51.462;6.698;2023-04-16T02:55:05;9.13;89.50
67862;DHT22;54665;51.462;6.698;2023-04-16T02:57:31;9.07;89.63
67862;DHT22;54665;51.462;6.698;2023-04-16T02:59:56;9.03;90.35
67862;DHT22;54665;51.462;6.698;2023-04-16T03:02:23;9.18;89.87
67862;DHT22;54665;51.462;6.698;2023-04-16T03:04:48;9.23;89.68
67862;DHT22;54665;51.462;6.698;2023-04-16T03:07:13;9.18;89.63
67862;DHT22;54665;51.462;6.698;2023-04-16T03:09:39;9.00;90.16
67862;DHT22;54665;51.462;6.698;2023-04-16T03:12:04;9.20;89.97
67862;DHT22;54665;51.462;6.698;2023-04-16T03:14:30;9.04;90.43
67862;DHT22;54665;51.462;6.698;2023-04-16T03:16:56;9.15;89.81
67862;DHT22;54665;51.462;6.698;2023-04-16T03:19:22;9.15;90.01
67862;DHT22;54665;51.462;6.698;2023-04-16T03:21:48;9.21;90.31
67862;DHT22;54665;51.462;6.698;2023-04-16T03:24:16;9.28;89.63
67862;DHT22;54665;51.462;6.698;2023-04-16T03:26:41;9.31;89.56
67862;DHT22;54665;51.462;6.698;2023-04-16T03:29:08;9.38;89.95
67862;DHT22;54665;51.462;6.698;2023-04-16T03:31:33;9.24;89.80
67862;DHT22;54665;51.462;6.698;2023-04-16T03:34:00;9.28;90.07
67862;DHT22;54665;51.462;6.698;2023-04-16T03:36:26;9.32;89.74
67862;DHT22;54665;51.462;6.698;2023-04-16T03:38:51;9.35;89.93
67862;DHT22;54665;51.462;6.698;2023-04-16T03:41:17;9.28;89.63
67862;DHT22;54665;51.462;6.698;2023-04-16T03:43:42;9.38;89.84
67862;DHT22;54665;51.462;6.698;2023-04-16T03:46:09;9.42;89.20
67862;DHT22;54665;51.462;6.698;2023-04-16T03:48:34;9.32;89.93
67862;DHT22;54665;51.462;6.698;2023-04-16T03:51:00;9.23;89.99
67862;DHT22;54665;51.462;6.698;2023-04-16T03:53:26;9.28;90.22
67862;DHT22;54665;51.462;6.698;2023-04-16T03:55:52;9.27;90.10
67862;DHT22;54665;51.462;6.698;2023-04-16T03:58:18;9.20;90.46
67862;DHT22;54665;51.462;6.698;2023-04-16T04:00:45;9.15;90.49
67862;DHT22;54665;51.462;6.698;2023-04-16T04:03:13;9.24;90.12
67862;DHT22;54665;51.462;6.698;2023-04-16T04:05:42;9.25;90.01
67862;DHT22;54665;51.462;6.698;2023-04-16T04:08:09;9.42;89.70
67862;DHT22;54665;51.462;6.698;2023-04-16T04:10:36;9.46;89.36
67862;DHT22;54665;51.462;6.698;2023-04-16T04:13:04;9.44;89.47
67862;DHT22;54665;51.462;6.698;2023-04-16T04:15:30;9.28;90.09
67862;DHT22;54665;51.462;6.698;2023-04-16T04:17:56;9.32;90.32
67862;DHT22;54665;51.462;6.698;2023-04-16T04:20:22;9.42;89.67
67862;DHT22;54665;51.462;6.698;2023-04-16T04:22:49;9.35;89.90
67862;DHT22;54665;51.462;6.698;2023-04-16T04:25:16;9.45;89.71
67862;DHT22;54665;51.462;6.698;2023-04-16T04:27:42;9.42;89.64
67862;DHT22;54665;51.462;6.698;2023-04-16T04:30:08;9.46;89.71
67862;DHT22;54665;51.462;6.698;2023-04-16T04:32:34;9.37;89.78
67862;DHT22;54665;51.462;6.698;2023-04-16T04:35:01;9.38;90.25
67862;DHT22;54665;51.462;6.698;2023-04-16T04:37:26;9.52;89.54
67862;DHT22;54665;51.462;6.698;2023-04-16T04:39:52;9.32;90.01
67862;DHT22;54665;51.462;6.698;2023-04-16T04:42:17;9.39;90.30
67862;DHT22;54665;51.462;6.698;2023-04-16T04:44:44;9.44;89.73
67862;DHT22;54665;51.462;6.698;2023-04-16T04:47:11;9.38;89.91
67862;DHT22;54665;51.462;6.698;2023-04-16T04:49:36;9.54;89.59
67862;DHT22;54665;51.462;6.698;2023-04-16T04:52:01;9.35;90.03
67862;DHT22;54665;51.462;6.698;2023-04-16T04:54:29;9.32;90.14
67862;DHT22;54665;51.462;6.698;2023-04-16T04:56:55;9.28;90.50
67862;DHT22;54665;51.462;6.698;2023-04-16T04:59:21;9.34;90.41
67862;DHT22;54665;51.462;6.698;2023-04-16T05:01:48;9.52;90.19
67862;DHT22;54665;51.462;6.698;2023-04-16T05:04:13;9.52;89.63
67862;DHT22;54665;51.462;6.698;2023-04-16T05:06:39;9.41;90.21
67862;DHT22;54665;51.462;6.698;2023-04-16T05:09:04;9.42;90.32
67862;DHT22;54665;51.462;6.698;2023-04-16T05:11:32;9.34;90.53
67862;DHT22;54665;51.462;6.698;2023-04-16T05:13:58;9.27;90.85
67862;DHT22;54665;51.462;6.698;2023-04-16T05:16:23;9.45;90.60
67862;DHT22;54665;51.462;6.698;2023-04-16T05:18:48;9.51;90.24
67862;DHT22;54665;51.462;6.698;2023-04-16T05:21:14;9.35;90.25
67862;DHT22;54665;51.462;6.698;2023-04-16T05:23:40;9.39;90.23
67862;DHT22;54665;51.462;6.698;2023-04-16T05:26:05;9.38;90.53
67862;DHT22;54665;51.462;6.698;2023-04-16T05:28:31;9.37;90.68
67862;DHT22;54665;51.462;6.698;2023-04-16T05:30:56;9.59;90.10
67862;DHT22;54665;51.462;6.698;2023-04-16T05:33:22;9.46;90.39
67862;DHT22;54665;51.462;6.698;2023-04-16T05:35:47;9.45;90.39
67862;DHT22;54665;51.462;6.698;2023-04-16T05:38:12;9.38;90.45
67862;DHT22;54665;51.462;6.698;2023-04-16T05:40:38;9.52;90.42
67862;DHT22;54665;51.462;6.698;2023-04-16T05:43:03;9.49;90.19
67862;DHT22;54665;51.462;6.698;2023-04-16T05:45:28;9.58;89.90
67862;DHT22;54665;51.462;6.698;2023-04-16T05:47:55;9.45;89.72
67862;DHT22;54665;51.462;6.698;2023-04-16T05:50:20;9.45;89.88
67862;DHT22;54665;51.462;6.698;2023-04-16T05:52:46;9.42;89.61
67862;DHT22;54665;51.462;6.698;2023-04-16T05:55:11;9.56;89.08
67862;DHT22;54665;51.462;6.698;2023-04-16T05:57:36;9.51;88.79
67862;DHT22;54665;51.462;6.698;2023-04-16T06:00:02;9.48;88.77
67862;DHT22;54665;51.462;6.698;2023-04-16T06:02:37;9.63;88.46
67862;DHT22;54665;51.462;6.698;2023-04-16T06:05:03;9.52;88.13
67862;DHT22;54665;51.462;6.698;2023-04-16T06:07:28;9.66;87.63
67862;DHT22;54665;51.462;6.698;2023-04-16T06:09:53;9.71;87.45
67862;DHT22;54665;51.462;6.698;2023-04-16T06:12:19;9.63;87.19
67862;DHT22;54665;51.462;6.698;2023-04-16T06:14:44;9.68;87.19
67862;DHT22;54665;51.462;6.698;2023-04-16T06:17:10;9.85;86.77
67862;DHT22;54665;51.462;6.698;2023-04-16T06:19:36;9.76;86.75
67862;DHT22;54665;51.462;6.698;2023-04-16T06:22:01;9.79;86.59
67862;DHT22;54665;51.462;6.698;2023-04-16T06:24:27;9.76;86.31
67862;DHT22;54665;51.462;6.698;2023-04-16T06:26:52;9.89;86.05
67862;DHT22;54665;51.462;6.698;2023-04-16T06:29:18;9.93;85.67
67862;DHT22;54665;51.462;6.698;2023-04-16T06:31:44;10.02;85.72
67862;DHT22;54665;51.462;6.698;2023-04-16T06:34:09;10.02;85.38
67862;DHT22;54665;51.462;6.698;2023-04-16T06:36:34;9.85;86.00
67862;DHT22;54665;51.462;6.698;2023-04-16T06:39:01;9.99;85.62
67862;DHT22;54665;51.462;6.698;2023-04-16T06:41:27;9.93;85.79
67862;DHT22;54665;51.462;6.698;2023-04-16T06:43:52;9.76;85.22
67862;DHT22;54665;51.462;6.698;2023-04-16T06:46:18;9.79;85.07
67862;DHT22;54665;51.462;6.698;2023-04-16T06:48:43;9.82;84.54
67862;DHT22;54665;51.462;6.698;2023-04-16T06:51:09;9.93;84.46
67862;DHT22;54665;51.462;6.698;2023-04-16T06:53:36;10.07;84.01
67862;DHT22;54665;51.462;6.698;2023-04-16T06:56:02;10.00;84.30
67862;DHT22;54665;51.462;6.698;2023-04-16T06:58:27;10.16;83.62
67862;DHT22;54665;51.462;6.698;2023-04-16T07:00:52;9.97;83.62
67862;DHT22;54665;51.462;6.698;2023-04-16T07:03:18;10.14;83.35
67862;DHT22;54665;51.462;6.698;2023-04-16T07:05:43;10.09;83.25
67862;DHT22;54665;51.462;6.698;2023-04-16T07:08:08;10.16;83.22
67862;DHT22;54665;51.462;6.698;2023-04-16T07:10:34;10.13;83.33
67862;DHT22;54665;51.462;6.698;2023-04-16T07:13:00;10.14;83.42
67862;DHT22;54665;51.462;6.698;2023-04-16T07:15:26;10.23;83.08
67862;DHT22;54665;51.462;6.698;2023-04-16T07:17:51;10.27;83.18
67862;DHT22;54665;51.462;6.698;2023-04-16T07:20:16;10.24;83.46
67862;DHT22;54665;51.462;6.698;2023-04-16T07:22:42;10.47;82.48
67862;DHT22;54665;51.462;6.698;2023-04-16T07:25:08;10.58;81.67
67862;DHT22;54665;51.462;6.698;2023-04-16T07:27:33;10.47;82.24
67862;DHT22;54665;51.462;6.698;2023-04-16T07:29:58;10.65;81.59
67862;DHT22;54665;51.462;6.698;2023-04-16T07:32:24;10.53;81.32
67862;DHT22;54665;51.462;6.698;2023-04-16T07:34:50;10.81;81.31
67862;DHT22;54665;51.462;6.698;2023-04-16T07:37:15;10.85;80.96
67862;DHT22;54665;51.462;6.698;2023-04-16T07:39:40;10.98;80.89
67862;DHT22;54665;51.462;6.698;2023-04-16T07:42:06;11.35;79.25
67862;DHT22;54665;51.462;6.698;2023-04-16T07:44:31;11.32;79.48
67862;DHT22;54665;51.462;6.698;2023-04-16T07:46:57;11.35;79.20
67862;DHT22;54665;51.462;6.698;2023-04-16T07:49:22;11.47;79.30
67862;DHT22;54665;51.462;6.698;2023-04-16T07:51:48;11.36;78.97
67862;DHT22;54665;51.462;6.698;2023-04-16T07:54:13;11.20;79.52
67862;DHT22;54665;51.462;6.698;2023-04-16T07:56:39;11.26;79.83
67862;DHT22;54665;51.462;6.698;2023-04-16T07:59:04;11.04;80.37
67862;DHT22;54665;51.462;6.698;2023-04-16T08:01:29;10.98;80.33
67862;DHT22;54665;51.462;6.698;2023-04-16T08:03:55;10.69;80.72
67862;DHT22;54665;51.462;6.698;2023-04-16T08:06:21;10.85;80.86
67862;DHT22;54665;51.462;6.698;2023-04-16T08:08:46;10.89;80.87
67862;DHT22;54665;51.462;6.698;2023-04-16T08:11:12;11.01;80.16
67862;DHT22;54665;51.462;6.698;2023-04-16T08:13:37;11.23;79.44
67862;DHT22;54665;51.462;6.698;2023-04-16T08:16:03;11.19;78.66
67862;DHT22;54665;51.462;6.698;2023-04-16T08:18:28;11.67;77.90
67862;DHT22;54665;51.462;6.698;2023-04-16T08:20:54;11.55;77.29
67862;DHT22;54665;51.462;6.698;2023-04-16T08:23:19;11.71;77.37
67862;DHT22;54665;51.462;6.698;2023-04-16T08:25:46;11.60;77.75
67862;DHT22;54665;51.462;6.698;2023-04-16T08:28:11;11.65;78.13
67862;DHT22;54665;51.462;6.698;2023-04-16T08:30:37;11.63;78.44
67862;DHT22;54665;51.462;6.698;2023-04-16T08:33:02;11.65;77.86
67862;DHT22;54665;51.462;6.698;2023-04-16T08:35:28;11.80;77.71
67862;DHT22;54665;51.462;6.698;2023-04-16T08:37:53;12.04;77.00
67862;DHT22;54665;51.462;6.698;2023-04-16T08:40:18;12.10;76.84
67862;DHT22;54665;51.462;6.698;2023-04-16T08:42:52;12.25;76.09
67862;DHT22;54665;51.462;6.698;2023-04-16T08:45:18;11.71;76.82
67862;DHT22;54665;51.462;6.698;2023-04-16T08:47:49;11.76;76.41
67862;DHT22;54665;51.462;6.698;2023-04-16T08:50:15;11.84;77.09
67862;DHT22;54665;51.462;6.698;2023-04-16T08:52:45;11.89;76.27
67862;DHT22;54665;51.462;6.698;2023-04-16T08:55:15;11.90;75.33
67862;DHT22;54665;51.462;6.698;2023-04-16T08:57:47;11.80;75.89
67862;DHT22;54665;51.462;6.698;2023-04-16T09:00:13;11.98;75.72
67862;DHT22;54665;51.462;6.698;2023-04-16T09:02:39;12.27;75.62
67862;DHT22;54665;51.462;6.698;2023-04-16T09:05:06;12.24;74.83
67862;DHT22;54665;51.462;6.698;2023-04-16T09:07:33;12.14;75.01
67862;DHT22;54665;51.462;6.698;2023-04-16T09:09:59;12.28;74.50
67862;DHT22;54665;51.462;6.698;2023-04-16T09:12:25;12.11;74.75
67862;DHT22;54665;51.462;6.698;2023-04-16T09:14:50;11.67;76.58
67862;DHT22;54665;51.462;6.698;2023-04-16T09:17:17;11.77;76.52
67862;DHT22;54665;51.462;6.698;2023-04-16T09:19:43;11.84;76.46
67862;DHT22;54665;51.462;6.698;2023-04-16T09:22:09;11.93;76.13
67862;DHT22;54665;51.462;6.698;2023-04-16T09:24:35;12.02;75.66
67862;DHT22;54665;51.462;6.698;2023-04-16T09:27:03;12.32;75.50
67862;DHT22;54665;51.462;6.698;2023-04-16T09:29:36;12.46;75.15
67862;DHT22;54665;51.462;6.698;2023-04-16T09:32:08;12.38;75.08
67862;DHT22;54665;51.462;6.698;2023-04-16T09:34:53;12.63;74.33
67862;DHT22;54665;51.462;6.698;2023-04-16T09:37:18;12.58;75.02
67862;DHT22;54665;51.462;6.698;2023-04-16T09:39:44;12.63;74.17
67862;DHT22;54665;51.462;6.698;2023-04-16T09:42:21;12.88;72.64
67862;DHT22;54665;51.462;6.698;2023-04-16T09:44:48;12.85;72.56
67862;DHT22;54665;51.462;6.698;2023-04-16T09:47:13;13.13;71.35
67862;DHT22;54665;51.462;6.698;2023-04-16T09:49:42;13.03;72.76
67862;DHT22;54665;51.462;6.698;2023-04-16T09:52:12;13.21;72.72
67862;DHT22;54665;51.462;6.698;2023-04-16T09:54:45;12.95;73.67
67862;DHT22;54665;51.462;6.698;2023-04-16T09:57:11;13.03;73.07
67862;DHT22;54665;51.462;6.698;2023-04-16T09:59:36;13.12;72.65
67862;DHT22;54665;51.462;6.698;2023-04-16T10:02:02;13.20;73.22
67862;DHT22;54665;51.462;6.698;2023-04-16T10:04:27;13.30;72.88
67862;DHT22;54665;51.462;6.698;2023-04-16T10:07:05;13.19;72.74
67862;DHT22;54665;51.462;6.698;2023-04-16T10:09:31;12.88;73.63
67862;DHT22;54665;51.462;6.698;2023-04-16T10:11:58;12.89;73.60
67862;DHT22;54665;51.462;6.698;2023-04-16T10:14:23;13.17;73.58
67862;DHT22;54665;51.462;6.698;2023-04-16T10:16:49;13.61;71.94
67862;DHT22;54665;51.462;6.698;2023-04-16T10:19:15;13.21;72.53
67862;DHT22;54665;51.462;6.698;2023-04-16T10:21:41;13.20;72.41
67862;DHT22;54665;51.462;6.698;2023-04-16T10:24:07;13.53;71.59
67862;DHT22;54665;51.462;6.698;2023-04-16T10:26:34;14.06;71.16
67862;DHT22;54665;51.462;6.698;2023-04-16T10:29:01;14.08;70.53
67862;DHT22;54665;51.462;6.698;2023-04-16T10:31:27;13.85;70.93
67862;DHT22;54665;51.462;6.698;2023-04-16T10:33:53;13.82;70.84
67862;DHT22;54665;51.462;6.698;2023-04-16T10:36:23;13.89;70.96
67862;DHT22;54665;51.462;6.698;2023-04-16T10:38:49;13.95;70.24
67862;DHT22;54665;51.462;6.698;2023-04-16T10:41:18;13.88;70.66
67862;DHT22;54665;51.462;6.698;2023-04-16T10:43:46;14.16;69.01
67862;DHT22;54665;51.462;6.698;2023-04-16T10:48:43;14.23;68.90
67862;DHT22;54665;51.462;6.698;2023-04-16T10:51:22;14.73;67.70
67862;DHT22;54665;51.462;6.698;2023-04-16T10:53:48;14.67;67.24
67862;DHT22;54665;51.462;6.698;2023-04-16T10:56:22;14.40;67.16
67862;DHT22;54665;51.462;6.698;2023-04-16T10:58:47;14.60;66.60
67862;DHT22;54665;51.462;6.698;2023-04-16T11:01:13;14.33;66.83
67862;DHT22;54665;51.462;6.698;2023-04-16T11:03:45;14.60;66.67
67862;DHT22;54665;51.462;6.698;2023-04-16T11:06:15;14.18;67.85
67862;DHT22;54665;51.462;6.698;2023-04-16T11:08:45;14.43;65.55
67862;DHT22;54665;51.462;6.698;2023-04-16T11:11:11;14.73;64.11
67862;DHT22;54665;51.462;6.698;2023-04-16T11:13:36;14.67;64.24
67862;DHT22;54665;51.462;6.698;2023-04-16T11:16:05;14.49;65.91
67862;DHT22;54665;51.462;6.698;2023-04-16T11:18:30;14.26;65.67
67862;DHT22;54665;51.462;6.698;2023-04-16T11:20:56;14.42;65.32
67862;DHT22;54665;51.462;6.698;2023-04-16T11:23:22;15.04;63.99
67862;DHT22;54665;51.462;6.698;2023-04-16T11:25:47;15.49;64.06
67862;DHT22;54665;51.462;6.698;2023-04-16T11:28:15;15.25;62.86
67862;DHT22;54665;51.462;6.698;2023-04-16T11:30:41;14.98;63.56
67862;DHT22;54665;51.462;6.698;2023-04-16T11:33:08;14.69;65.00
67862;DHT22;54665;51.462;6.698;2023-04-16T11:35:36;14.36;64.72
67862;DHT22;54665;51.462;6.698;2023-04-16T11:38:03;14.44;63.95
67862;DHT22;54665;51.462;6.698;2023-04-16T11:40:30;14.90;62.88
67862;DHT22;54665;51.462;6.698;2023-04-16T11:43:03;14.87;63.22
67862;DHT22;54665;51.462;6.698;2023-04-16T11:45:29;15.27;62.16
67862;DHT22;54665;51.462;6.698;2023-04-16T11:47:54;15.46;62.34
67862;DHT22;54665;51.462;6.698;2023-04-16T11:50:26;15.72;60.15
67862;DHT22;54665;51.462;6.698;2023-04-16T11:52:56;15.48;60.78
67862;DHT22;54665;51.462;6.698;2023-04-16T11:55:27;14.90;62.17
67862;DHT22;54665;51.462;6.698;2023-04-16T11:57:52;14.63;64.43
67862;DHT22;54665;51.462;6.698;2023-04-16T12:00:18;14.66;62.68
67862;DHT22;54665;51.462;6.698;2023-04-16T12:02:44;14.63;63.62
67862;DHT22;54665;51.462;6.698;2023-04-16T12:05:30;14.66;63.85
67862;DHT22;54665;51.462;6.698;2023-04-16T12:08:00;14.50;62.79
67862;DHT22;54665;51.462;6.698;2023-04-16T12:10:27;15.49;61.40
67862;DHT22;54665;51.462;6.698;2023-04-16T12:12:52;16.82;58.59
67862;DHT22;54665;51.462;6.698;2023-04-16T12:15:18;17.06;58.74
67862;DHT22;54665;51.462;6.698;2023-04-16T12:17:43;16.41;59.09
67862;DHT22;54665;51.462;6.698;2023-04-16T12:20:13;15.90;59.77
67862;DHT22;54665;51.462;6.698;2023-04-16T12:22:46;15.59;60.72
67862;DHT22;54665;51.462;6.698;2023-04-16T12:25:15;15.46;60.53
67862;DHT22;54665;51.462;6.698;2023-04-16T12:27:54;15.51;60.56
67862;DHT22;54665;51.462;6.698;2023-04-16T12:30:21;15.23;61.19
67862;DHT22;54665;51.462;6.698;2023-04-16T12:32:49;15.27;61.70
67862;DHT22;54665;51.462;6.698;2023-04-16T12:35:32;15.52;59.87
67862;DHT22;54665;51.462;6.698;2023-04-16T12:37:59;15.66;61.43
67862;DHT22;54665;51.462;6.698;2023-04-16T12:40:25;15.31;60.91
67862;DHT22;54665;51.462;6.698;2023-04-16T12:42:51;14.90;62.02
67862;DHT22;54665;51.462;6.698;2023-04-16T12:45:16;14.67;62.81
67862;DHT22;54665;51.462;6.698;2023-04-16T12:47:42;14.66;63.39
67862;DHT22;54665;51.462;6.698;2023-04-16T12:50:08;14.72;62.07
67862;DHT22;54665;51.462;6.698;2023-04-16T12:52:33;14.57;62.96
67862;DHT22;54665;51.462;6.698;2023-04-16T12:55:02;15.12;61.48
67862;DHT22;54665;51.462;6.698;2023-04-16T12:57:28;15.18;62.03
67862;DHT22;54665;51.462;6.698;2023-04-16T12:59:54;15.31;62.00
67862;DHT22;54665;51.462;6.698;2023-04-16T13:02:21;15.38;61.75
67862;DHT22;54665;51.462;6.698;2023-04-16T13:04:46;15.45;61.47
67862;DHT22;54665;51.462;6.698;2023-04-16T13:07:12;15.08;61.18
67862;DHT22;54665;51.462;6.698;2023-04-16T13:09:37;15.27;60.90
67862;DHT22;54665;51.462;6.698;2023-04-16T13:12:03;14.88;61.75
67862;DHT22;54665;51.462;6.698;2023-04-16T13:14:28;15.20;61.07
67862;DHT22;54665;51.462;6.698;2023-04-16T13:16:54;15.20;61.72
67862;DHT22;54665;51.462;6.698;2023-04-16T13:19:19;15.30;61.88
67862;DHT22;54665;51.462;6.698;2023-04-16T13:21:45;15.20;61.05
67862;DHT22;54665;51.462;6.698;2023-04-16T13:24:10;15.21;60.97
67862;DHT22;54665;51.462;6.698;2023-04-16T13:26:36;15.30;60.53
67862;DHT22;54665;51.462;6.698;2023-04-16T13:29:01;15.39;60.00
67862;DHT22;54665;51.462;6.698;2023-04-16T13:31:26;15.49;60.34
67862;DHT22;54665;51.462;6.698;2023-04-16T13:33:52;15.52;60.45
67862;DHT22;54665;51.462;6.698;2023-04-16T13:36:17;15.23;60.32
67862;DHT22;54665;51.462;6.698;2023-04-16T13:38:43;15.66;59.62
67862;DHT22;54665;51.462;6.698;2023-04-16T13:41:08;15.82;59.32
67862;DHT22;54665;51.462;6.698;2023-04-16T13:43:34;15.72;58.86
67862;DHT22;54665;51.462;6.698;2023-04-16T13:45:59;15.66;59.16
67862;DHT22;54665;51.462;6.698;2023-04-16T13:48:25;15.83;60.17
67862;DHT22;54665;51.462;6.698;2023-04-16T13:50:50;16.00;58.32
67862;DHT22;54665;51.462;6.698;2023-04-16T13:53:16;16.09;60.97
67862;DHT22;54665;51.462;6.698;2023-04-16T13:55:41;16.38;59.28
67862;DHT22;54665;51.462;6.698;2023-04-16T13:58:07;16.43;59.32
67862;DHT22;54665;51.462;6.698;2023-04-16T14:00:32;15.69;59.81
67862;DHT22;54665;51.462;6.698;2023-04-16T14:02:58;16.23;59.05
67862;DHT22;54665;51.462;6.698;2023-04-16T14:05:23;16.16;58.75
67862;DHT22;54665;51.462;6.698;2023-04-16T14:07:49;15.90;59.52
67862;DHT22;54665;51.462;6.698;2023-04-16T14:10:15;15.79;59.59
67862;DHT22;54665;51.462;6.698;2023-04-16T14:12:41;15.35;61.05
67862;DHT22;54665;51.462;6.698;2023-04-16T14:15:07;15.52;60.70
67862;DHT22;54665;51.462;6.698;2023-04-16T14:17:34;16.06;60.31
67862;DHT22;54665;51.462;6.698;2023-04-16T14:19:59;15.99;60.78
67862;DHT22;54665;51.462;6.698;2023-04-16T14:22:25;15.73;61.50
67862;DHT22;54665;51.462;6.698;2023-04-16T14:24:50;15.39;61.42
67862;DHT22;54665;51.462;6.698;2023-04-16T14:27:15;15.49;60.95
67862;DHT22;54665;51.462;6.698;2023-04-16T14:29:41;15.70;60.87
67862;DHT22;54665;51.462;6.698;2023-04-16T14:32:07;15.49;61.32
67862;DHT22;54665;51.462;6.698;2023-04-16T14:34:33;15.85;60.81
67862;DHT22;54665;51.462;6.698;2023-04-16T14:36:58;16.14;59.79
67862;DHT22;54665;51.462;6.698;2023-04-16T14:39:24;16.16;60.77
67862;DHT22;54665;51.462;6.698;2023-04-16T14:41:49;16.26;60.29
67862;DHT22;54665;51.462;6.698;2023-04-16T14:44:15;15.82;60.08
67862;DHT22;54665;51.462;6.698;2023-04-16T14:46:40;15.56;60.59
67862;DHT22;54665;51.462;6.698;2023-04-16T14:49:06;15.42;61.76
67862;DHT22;54665;51.462;6.698;2023-04-16T14:51:33;15.24;62.08
67862;DHT22;54665;51.462;6.698;2023-04-16T14:53:59;15.01;62.97
67862;DHT22;54665;51.462;6.698;2023-04-16T14:56:25;14.90;63.60
67862;DHT22;54665;51.462;6.698;2023-04-16T14:58:51;14.70;63.86
67862;DHT22;54665;51.462;6.698;2023-04-16T15:01:16;14.59;64.54
67862;DHT22;54665;51.462;6.698;2023-04-16T15:03:42;14.50;65.03
67862;DHT22;54665;51.462;6.698;2023-04-16T15:06:08;14.84;63.65
67862;DHT22;54665;51.462;6.698;2023-04-16T15:08:34;15.08;63.39
67862;DHT22;54665;51.462;6.698;2023-04-16T15:11:00;15.10;62.76
67862;DHT22;54665;51.462;6.698;2023-04-16T15:13:25;14.87;63.10
67862;DHT22;54665;51.462;6.698;2023-04-16T15:15:59;14.80;63.28
67862;DHT22;54665;51.462;6.698;2023-04-16T15:18:25;15.01;63.81
67862;DHT22;54665;51.462;6.698;2023-04-16T15:20:51;15.08;63.66
67862;DHT22;54665;51.462;6.698;2023-04-16T15:23:18;15.10;62.97
67862;DHT22;54665;51.462;6.698;2023-04-16T15:25:44;15.01;62.66
67862;DHT22;54665;51.462;6.698;2023-04-16T15:28:09;14.95;62.78
67862;DHT22;54665;51.462;6.698;2023-04-16T15:30:36;14.84;63.11
67862;DHT22;54665;51.462;6.698;2023-04-16T15:33:02;14.90;62.91
67862;DHT22;54665;51.462;6.698;2023-04-16T15:35:28;14.72;63.72